KERO2: Robert S. Kerr Lock & Dam & Reservoir (L&D 15)

Data processed at Sat Mar 10 2018 23:36


All information presented herein is the property of the government of the United States of America and may be revised or deleted at any time without prior notice.
Dissemination of this information without the expressed written consent of the Public Affairs Office, Tulsa District U.S. Army Corps of Engineers is strictly prohibited.
These data are gathered electronically and, as presented, have not undergone any form of quality control. These data are not guaranteed to be valid or correct.
Go to home page.
Go to station list.

Upstream stations:

Downstream station:
Previous Day
Next Day
Current Day
    
SHEF ID:       KERO2     Robert S. Kerr Lock & Dam
STATION TYPE:  NAVIGATION LOCK
Normal Pool:  Bottom =   458.00, Top =   460.00

               PRECIP ELEVATION   STORAGE   TW-ELEV    INFLOW   RELEASE  AIR-TEMP  WIND-DIRWIND-SPEED REL-HUMID SOLAR-RAD   VOLTAGE  BAT-LOAD
                   in        ft     ac-ft        ft       cfs       cfs         F       deg       mph         %      W/m2      volt      volt
              Ccp-Rev   Ccp-Rev   Ccp-Rev   Ccp-Rev  Regi-Rev  Regi-Rev   Ccp-Rev   Ccp-Rev   Ccp-Rev   Ccp-Rev   Ccp-Rev   Ccp-Rev   Ccp-Rev
(US/Central)
03/08 00:00      0.00    459.95    523535    416.19     66696     53600     36.73    188.30      1.41     90.45      0.00     13.80     13.48
03/08 01:00      0.00    459.97    524397    417.29     65028     65800     40.69    207.10      2.72     72.07      0.00     13.82     13.36
03/08 02:00      0.00    459.96    523966    417.57     62317     65800     40.03    209.80      3.72     79.64      0.00     13.80     13.48
03/08 03:00      0.00    459.97    524397    417.61     65800     65800     38.39    262.40      3.79     76.29      0.00     13.80     13.36
03/08 04:00      0.00    459.95    523535    417.66     63714     65800     37.29    241.00      2.14     66.45      0.00     13.79     13.36
03/08 05:00      0.00    459.95    523535    417.71     62671     65800     37.08    248.10      2.04     59.55      0.00     13.81     13.36
03/08 06:00      0.00    459.95    523535    417.76     60585     65800     36.41    256.70      0.64     71.77      0.00     13.79     13.42
03/08 07:00      0.00    459.93    522673    417.78     64757     65800     32.45    256.90      0.43     92.17      4.00     13.79     13.36
03/08 08:00      0.00    459.92    522242    417.81     61628     65800     37.08     58.00      0.38     89.67    145.00     13.80     13.36
03/08 09:00      0.00    459.94    523104    417.83     56413     65800     41.79    202.30      3.50     66.39    252.00     13.80     13.42
03/08 10:00      0.00    459.91    521811    417.92     60585     65800     44.98    204.70      4.10     46.97    596.00     13.80     13.36
03/08 11:00      0.00    459.86    519656    418.03     57456     65800     46.29    227.60      5.30     48.49    763.00     13.82     13.42
03/08 12:00      0.00    459.88    520518    418.03     55370     65800     49.71    210.10      5.63     28.40    816.00     13.81     13.48
03/08 13:00      0.00    459.84    518794    418.12     57634     65800     51.91    217.20      4.71     30.54    841.00     13.81     13.36
03/08 14:00      0.00    459.84    518794    418.10     64070     65800     53.65    199.00      3.83     37.13    738.00     13.81     13.36
03/08 15:00      0.00    459.84    518794    417.68     61119     61475     56.52    169.80      2.56     25.65    800.00     13.83     13.42
03/08 16:00      0.00    459.86    519656    417.62     66512     61475     59.05    109.90      0.47     25.53    631.00     13.81     13.36
03/08 17:00      0.00    459.86    519656    417.59     67733     61475     58.60     46.90      1.43     26.56    403.00     13.82     13.42
03/08 18:00      0.00    459.88    520518    417.56     63561     61475     56.28     42.70      2.20     38.23    165.00     13.82     13.42
03/08 19:00      0.00    459.87    520087    417.54     61475     61475     50.81     53.90      0.38     57.35      5.00     13.82     13.42
03/08 20:00      0.00    459.86    519656    417.48     60432     61475     50.47     12.60      1.00     45.80      0.00     13.81     13.36
03/08 21:00      0.00    459.86    519656    417.45     57303     61475     48.94      1.70      0.62     48.80      0.00     13.76     13.42
03/08 22:00      0.00    459.85    519225    417.44     54174     61475     46.74     12.10      1.94     52.52      0.00     13.81     13.36
03/08 23:00      0.00    459.84    518794    417.42     56260     61475     44.42     20.70      2.43     65.65      0.00     13.81     13.36